You are listening to:
RJTT Company Channels - Tokyo, Japan

RJTT 191100Z 18010KT 9999 -RA FEW060 BKN100 21/15 Q1017 NOSIG

If stream doesn't start automatically press the play button
If stream stops then reload player then press play